sensor_id;sensor_type;location;lat;lon;timestamp;temperature;humidity
37342;DHT22;58643;49.052;8.518;2022-09-09T00:09:47;14.90;99.90
37342;DHT22;58643;49.052;8.518;2022-09-09T00:12:38;14.90;99.90
37342;DHT22;58643;49.052;8.518;2022-09-09T00:15:22;14.90;99.90
37342;DHT22;58643;49.052;8.518;2022-09-09T00:17:59;14.90;99.90
37342;DHT22;58643;49.052;8.518;2022-09-09T00:20:38;14.90;99.90
37342;DHT22;58643;49.052;8.518;2022-09-09T00:23:28;16.60;99.90
37342;DHT22;58643;49.052;8.518;2022-09-09T00:28:29;14.70;99.90
37342;DHT22;58643;49.052;8.518;2022-09-09T00:31:04;14.60;99.90
37342;DHT22;58643;49.052;8.518;2022-09-09T00:33:34;15.90;99.90
37342;DHT22;58643;49.052;8.518;2022-09-09T00:36:00;16.90;99.90
37342;DHT22;58643;49.052;8.518;2022-09-09T00:38:39;14.90;99.90
37342;DHT22;58643;49.052;8.518;2022-09-09T00:41:14;14.90;99.90
37342;DHT22;58643;49.052;8.518;2022-09-09T00:43:41;15.00;99.90
37342;DHT22;58643;49.052;8.518;2022-09-09T00:49:20;14.90;99.90
37342;DHT22;58643;49.052;8.518;2022-09-09T00:52:30;14.90;99.90
37342;DHT22;58643;49.052;8.518;2022-09-09T00:57:41;14.90;99.90
37342;DHT22;58643;49.052;8.518;2022-09-09T01:00:23;15.90;99.90
37342;DHT22;58643;49.052;8.518;2022-09-09T01:07:58;15.20;99.90
37342;DHT22;58643;49.052;8.518;2022-09-09T01:10:47;15.50;99.90
37342;DHT22;58643;49.052;8.518;2022-09-09T01:13:26;15.40;99.90
37342;DHT22;58643;49.052;8.518;2022-09-09T01:15:57;15.30;99.90
37342;DHT22;58643;49.052;8.518;2022-09-09T01:18:26;17.20;99.90
37342;DHT22;58643;49.052;8.518;2022-09-09T01:28:54;15.40;99.90
37342;DHT22;58643;49.052;8.518;2022-09-09T01:34:18;15.40;99.90
37342;DHT22;58643;49.052;8.518;2022-09-09T01:37:00;15.60;99.90
37342;DHT22;58643;49.052;8.518;2022-09-09T01:39:27;15.60;99.90
37342;DHT22;58643;49.052;8.518;2022-09-09T01:41:54;17.70;99.90
37342;DHT22;58643;49.052;8.518;2022-09-09T01:44:21;15.80;99.90
37342;DHT22;58643;49.052;8.518;2022-09-09T01:46:47;16.40;99.90
37342;DHT22;58643;49.052;8.518;2022-09-09T01:49:13;17.10;99.90
37342;DHT22;58643;49.052;8.518;2022-09-09T01:51:39;16.00;99.90
37342;DHT22;58643;49.052;8.518;2022-09-09T01:54:06;15.90;99.90
37342;DHT22;58643;49.052;8.518;2022-09-09T02:04:44;15.50;99.90
37342;DHT22;58643;49.052;8.518;2022-09-09T02:07:47;15.30;99.90
37342;DHT22;58643;49.052;8.518;2022-09-09T02:10:46;15.30;99.90
37342;DHT22;58643;49.052;8.518;2022-09-09T02:13:13;15.60;99.90
37342;DHT22;58643;49.052;8.518;2022-09-09T02:15:48;15.30;99.90
37342;DHT22;58643;49.052;8.518;2022-09-09T02:18:22;15.20;99.90
37342;DHT22;58643;49.052;8.518;2022-09-09T02:20:50;15.10;99.90
37342;DHT22;58643;49.052;8.518;2022-09-09T02:23:17;16.90;99.90
37342;DHT22;58643;49.052;8.518;2022-09-09T02:25:44;16.90;99.90
37342;DHT22;58643;49.052;8.518;2022-09-09T02:28:12;16.90;99.90
37342;DHT22;58643;49.052;8.518;2022-09-09T02:30:40;15.30;99.90
37342;DHT22;58643;49.052;8.518;2022-09-09T02:33:08;15.20;99.90
37342;DHT22;58643;49.052;8.518;2022-09-09T02:35:36;15.20;99.90
37342;DHT22;58643;49.052;8.518;2022-09-09T02:38:06;15.30;99.90
37342;DHT22;58643;49.052;8.518;2022-09-09T02:40:32;16.10;99.90
37342;DHT22;58643;49.052;8.518;2022-09-09T02:42:57;15.80;99.90
37342;DHT22;58643;49.052;8.518;2022-09-09T02:45:29;15.00;99.90
37342;DHT22;58643;49.052;8.518;2022-09-09T02:48:07;15.10;99.90
37342;DHT22;58643;49.052;8.518;2022-09-09T02:50:46;14.90;99.90
37342;DHT22;58643;49.052;8.518;2022-09-09T02:53:19;15.40;99.90
37342;DHT22;58643;49.052;8.518;2022-09-09T02:56:04;14.80;99.90
37342;DHT22;58643;49.052;8.518;2022-09-09T02:58:30;14.80;99.90
37342;DHT22;58643;49.052;8.518;2022-09-09T03:00:57;15.10;99.90
37342;DHT22;58643;49.052;8.518;2022-09-09T03:03:23;14.80;99.90
37342;DHT22;58643;49.052;8.518;2022-09-09T03:05:49;16.80;99.90
37342;DHT22;58643;49.052;8.518;2022-09-09T03:08:16;14.80;99.90
37342;DHT22;58643;49.052;8.518;2022-09-09T03:10:42;16.00;99.90
37342;DHT22;58643;49.052;8.518;2022-09-09T03:13:08;16.60;99.90
37342;DHT22;58643;49.052;8.518;2022-09-09T03:15:34;14.60;99.90
37342;DHT22;58643;49.052;8.518;2022-09-09T03:18:00;16.20;99.90
37342;DHT22;58643;49.052;8.518;2022-09-09T03:20:27;14.70;99.90
37342;DHT22;58643;49.052;8.518;2022-09-09T03:22:53;14.70;99.90
37342;DHT22;58643;49.052;8.518;2022-09-09T03:25:19;14.90;99.90
37342;DHT22;58643;49.052;8.518;2022-09-09T03:27:45;16.20;99.90
37342;DHT22;58643;49.052;8.518;2022-09-09T03:30:11;14.60;99.90
37342;DHT22;58643;49.052;8.518;2022-09-09T03:32:37;14.50;99.90
37342;DHT22;58643;49.052;8.518;2022-09-09T03:35:03;14.40;99.90
37342;DHT22;58643;49.052;8.518;2022-09-09T03:37:28;14.50;99.90
37342;DHT22;58643;49.052;8.518;2022-09-09T03:39:54;16.30;99.90
37342;DHT22;58643;49.052;8.518;2022-09-09T03:42:20;14.70;99.90
37342;DHT22;58643;49.052;8.518;2022-09-09T03:44:47;15.20;99.90
37342;DHT22;58643;49.052;8.518;2022-09-09T03:47:20;14.50;99.90
37342;DHT22;58643;49.052;8.518;2022-09-09T03:49:47;16.00;99.90
37342;DHT22;58643;49.052;8.518;2022-09-09T03:52:14;15.90;99.90
37342;DHT22;58643;49.052;8.518;2022-09-09T03:54:39;14.40;99.90
37342;DHT22;58643;49.052;8.518;2022-09-09T03:57:06;16.50;99.90
37342;DHT22;58643;49.052;8.518;2022-09-09T03:59:32;14.20;99.90
37342;DHT22;58643;49.052;8.518;2022-09-09T04:01:58;14.30;99.90
37342;DHT22;58643;49.052;8.518;2022-09-09T04:04:24;14.20;99.90
37342;DHT22;58643;49.052;8.518;2022-09-09T04:06:51;15.10;99.90
37342;DHT22;58643;49.052;8.518;2022-09-09T04:09:17;14.10;99.90
37342;DHT22;58643;49.052;8.518;2022-09-09T04:11:43;14.20;99.90
37342;DHT22;58643;49.052;8.518;2022-09-09T04:14:08;14.10;99.90
37342;DHT22;58643;49.052;8.518;2022-09-09T04:16:34;15.60;99.90
37342;DHT22;58643;49.052;8.518;2022-09-09T04:19:02;15.50;99.90
37342;DHT22;58643;49.052;8.518;2022-09-09T04:21:30;16.30;99.90
37342;DHT22;58643;49.052;8.518;2022-09-09T04:23:55;14.50;99.90
37342;DHT22;58643;49.052;8.518;2022-09-09T04:26:21;14.40;99.90
37342;DHT22;58643;49.052;8.518;2022-09-09T04:28:46;15.40;99.90
37342;DHT22;58643;49.052;8.518;2022-09-09T04:31:20;15.40;99.90
37342;DHT22;58643;49.052;8.518;2022-09-09T04:33:48;14.50;99.90
37342;DHT22;58643;49.052;8.518;2022-09-09T04:36:14;15.90;99.90
37342;DHT22;58643;49.052;8.518;2022-09-09T04:38:40;14.80;99.90
37342;DHT22;58643;49.052;8.518;2022-09-09T04:41:06;16.00;99.90
37342;DHT22;58643;49.052;8.518;2022-09-09T04:43:32;15.30;99.90
37342;DHT22;58643;49.052;8.518;2022-09-09T04:45:58;16.00;99.90
37342;DHT22;58643;49.052;8.518;2022-09-09T04:48:27;15.50;99.90
37342;DHT22;58643;49.052;8.518;2022-09-09T04:51:08;16.40;99.90
37342;DHT22;58643;49.052;8.518;2022-09-09T04:53:34;14.80;99.90
37342;DHT22;58643;49.052;8.518;2022-09-09T04:56:05;16.50;99.90
37342;DHT22;58643;49.052;8.518;2022-09-09T04:58:31;14.90;99.90
37342;DHT22;58643;49.052;8.518;2022-09-09T05:01:16;14.90;99.90
37342;DHT22;58643;49.052;8.518;2022-09-09T05:03:42;16.30;99.90
37342;DHT22;58643;49.052;8.518;2022-09-09T05:06:15;15.10;99.90
37342;DHT22;58643;49.052;8.518;2022-09-09T05:08:42;15.20;99.90
37342;DHT22;58643;49.052;8.518;2022-09-09T05:11:19;16.50;99.90
37342;DHT22;58643;49.052;8.518;2022-09-09T05:13:46;16.80;99.90
37342;DHT22;58643;49.052;8.518;2022-09-09T05:16:13;15.50;99.90
37342;DHT22;58643;49.052;8.518;2022-09-09T05:18:39;15.90;99.90
37342;DHT22;58643;49.052;8.518;2022-09-09T05:21:06;17.50;99.90
37342;DHT22;58643;49.052;8.518;2022-09-09T05:23:33;15.50;99.90
37342;DHT22;58643;49.052;8.518;2022-09-09T05:25:59;15.70;99.90
37342;DHT22;58643;49.052;8.518;2022-09-09T05:28:26;15.50;99.90
37342;DHT22;58643;49.052;8.518;2022-09-09T05:31:00;15.60;99.90
37342;DHT22;58643;49.052;8.518;2022-09-09T05:33:26;15.50;99.90
37342;DHT22;58643;49.052;8.518;2022-09-09T05:36:19;16.50;99.90
37342;DHT22;58643;49.052;8.518;2022-09-09T05:38:45;15.70;99.90
37342;DHT22;58643;49.052;8.518;2022-09-09T05:41:12;17.40;99.90
37342;DHT22;58643;49.052;8.518;2022-09-09T05:43:38;16.00;99.90
37342;DHT22;58643;49.052;8.518;2022-09-09T05:46:08;18.50;99.90
37342;DHT22;58643;49.052;8.518;2022-09-09T05:48:36;15.90;99.90
37342;DHT22;58643;49.052;8.518;2022-09-09T05:51:03;16.50;99.90
37342;DHT22;58643;49.052;8.518;2022-09-09T05:53:30;15.90;99.90
37342;DHT22;58643;49.052;8.518;2022-09-09T05:58:27;16.00;99.90
37342;DHT22;58643;49.052;8.518;2022-09-09T06:00:52;17.90;99.90
37342;DHT22;58643;49.052;8.518;2022-09-09T06:03:19;17.70;99.90
37342;DHT22;58643;49.052;8.518;2022-09-09T06:05:56;16.00;99.90
37342;DHT22;58643;49.052;8.518;2022-09-09T06:08:22;15.20;99.90
37342;DHT22;58643;49.052;8.518;2022-09-09T06:10:47;16.30;99.90
37342;DHT22;58643;49.052;8.518;2022-09-09T06:13:13;16.60;99.90
37342;DHT22;58643;49.052;8.518;2022-09-09T06:15:38;17.70;99.90
37342;DHT22;58643;49.052;8.518;2022-09-09T06:18:04;17.20;99.90
37342;DHT22;58643;49.052;8.518;2022-09-09T06:20:30;17.30;99.90
37342;DHT22;58643;49.052;8.518;2022-09-09T06:22:57;17.40;99.90
37342;DHT22;58643;49.052;8.518;2022-09-09T06:25:22;18.30;99.90
37342;DHT22;58643;49.052;8.518;2022-09-09T06:27:49;17.60;99.90
37342;DHT22;58643;49.052;8.518;2022-09-09T06:30:15;19.30;99.90
37342;DHT22;58643;49.052;8.518;2022-09-09T06:32:42;17.80;99.90
37342;DHT22;58643;49.052;8.518;2022-09-09T06:35:08;18.60;99.90
37342;DHT22;58643;49.052;8.518;2022-09-09T06:37:33;17.80;99.90
37342;DHT22;58643;49.052;8.518;2022-09-09T06:39:59;18.10;99.90
37342;DHT22;58643;49.052;8.518;2022-09-09T06:42:24;18.40;99.90
37342;DHT22;58643;49.052;8.518;2022-09-09T06:44:50;19.00;99.90
37342;DHT22;58643;49.052;8.518;2022-09-09T06:47:16;18.50;99.90
37342;DHT22;58643;49.052;8.518;2022-09-09T06:49:41;18.40;99.90
37342;DHT22;58643;49.052;8.518;2022-09-09T06:52:09;18.30;99.90
37342;DHT22;58643;49.052;8.518;2022-09-09T06:54:34;18.60;99.90
37342;DHT22;58643;49.052;8.518;2022-09-09T06:57:02;19.00;99.90
37342;DHT22;58643;49.052;8.518;2022-09-09T06:59:28;18.50;99.90
37342;DHT22;58643;49.052;8.518;2022-09-09T07:01:56;19.10;99.90
37342;DHT22;58643;49.052;8.518;2022-09-09T07:04:22;18.90;99.90
37342;DHT22;58643;49.052;8.518;2022-09-09T07:06:47;19.30;99.90
37342;DHT22;58643;49.052;8.518;2022-09-09T07:09:14;19.40;99.90
37342;DHT22;58643;49.052;8.518;2022-09-09T07:11:43;18.50;99.90
37342;DHT22;58643;49.052;8.518;2022-09-09T07:14:10;17.70;99.90
37342;DHT22;58643;49.052;8.518;2022-09-09T07:16:39;17.50;99.90
37342;DHT22;58643;49.052;8.518;2022-09-09T07:19:05;17.40;99.90
37342;DHT22;58643;49.052;8.518;2022-09-09T07:21:32;17.80;99.90
37342;DHT22;58643;49.052;8.518;2022-09-09T07:23:58;17.90;99.90
37342;DHT22;58643;49.052;8.518;2022-09-09T07:26:28;18.10;99.90
37342;DHT22;58643;49.052;8.518;2022-09-09T07:28:54;18.10;99.90
37342;DHT22;58643;49.052;8.518;2022-09-09T07:31:33;18.60;99.90
37342;DHT22;58643;49.052;8.518;2022-09-09T07:34:00;18.70;99.90
37342;DHT22;58643;49.052;8.518;2022-09-09T07:36:31;19.10;99.90
37342;DHT22;58643;49.052;8.518;2022-09-09T07:39:04;20.90;99.90
37342;DHT22;58643;49.052;8.518;2022-09-09T07:41:39;19.00;99.90
37342;DHT22;58643;49.052;8.518;2022-09-09T07:44:10;18.50;99.90
37342;DHT22;58643;49.052;8.518;2022-09-09T07:46:37;18.30;99.90
37342;DHT22;58643;49.052;8.518;2022-09-09T07:49:05;20.00;99.90
37342;DHT22;58643;49.052;8.518;2022-09-09T07:51:33;18.80;99.90
37342;DHT22;58643;49.052;8.518;2022-09-09T07:54:02;18.20;99.90
37342;DHT22;58643;49.052;8.518;2022-09-09T07:56:29;18.90;99.90
37342;DHT22;58643;49.052;8.518;2022-09-09T07:58:56;18.80;99.90
37342;DHT22;58643;49.052;8.518;2022-09-09T08:01:26;18.70;99.90
37342;DHT22;58643;49.052;8.518;2022-09-09T08:04:03;18.70;99.90
37342;DHT22;58643;49.052;8.518;2022-09-09T08:06:32;18.60;99.90
37342;DHT22;58643;49.052;8.518;2022-09-09T08:09:01;18.60;99.90
37342;DHT22;58643;49.052;8.518;2022-09-09T08:11:28;19.30;99.90
37342;DHT22;58643;49.052;8.518;2022-09-09T08:13:55;19.20;99.90
37342;DHT22;58643;49.052;8.518;2022-09-09T08:16:27;19.40;99.90
37342;DHT22;58643;49.052;8.518;2022-09-09T08:18:54;19.80;99.90
37342;DHT22;58643;49.052;8.518;2022-09-09T08:21:26;19.90;99.90
37342;DHT22;58643;49.052;8.518;2022-09-09T08:23:57;21.30;99.90
37342;DHT22;58643;49.052;8.518;2022-09-09T08:26:29;20.70;99.90
37342;DHT22;58643;49.052;8.518;2022-09-09T08:28:57;20.70;99.90
37342;DHT22;58643;49.052;8.518;2022-09-09T08:31:32;20.80;99.90
37342;DHT22;58643;49.052;8.518;2022-09-09T08:33:59;20.70;99.90
37342;DHT22;58643;49.052;8.518;2022-09-09T08:36:27;21.20;99.90
37342;DHT22;58643;49.052;8.518;2022-09-09T08:38:55;21.00;99.90
37342;DHT22;58643;49.052;8.518;2022-09-09T08:46:52;19.80;99.90
37342;DHT22;58643;49.052;8.518;2022-09-09T08:52:22;19.10;99.90
37342;DHT22;58643;49.052;8.518;2022-09-09T08:54:48;20.20;99.90
37342;DHT22;58643;49.052;8.518;2022-09-09T08:57:23;19.40;99.90
37342;DHT22;58643;49.052;8.518;2022-09-09T08:59:53;19.20;99.90
37342;DHT22;58643;49.052;8.518;2022-09-09T09:02:48;20.30;99.90
37342;DHT22;58643;49.052;8.518;2022-09-09T09:05:37;19.70;99.90
37342;DHT22;58643;49.052;8.518;2022-09-09T09:08:32;20.80;99.90
37342;DHT22;58643;49.052;8.518;2022-09-09T09:11:03;19.70;99.90
37342;DHT22;58643;49.052;8.518;2022-09-09T09:18:54;18.30;99.90
37342;DHT22;58643;49.052;8.518;2022-09-09T09:21:42;18.40;99.90
37342;DHT22;58643;49.052;8.518;2022-09-09T09:26:59;18.20;99.90
37342;DHT22;58643;49.052;8.518;2022-09-09T09:29:26;18.50;99.90
37342;DHT22;58643;49.052;8.518;2022-09-09T09:31:54;18.70;99.90
37342;DHT22;58643;49.052;8.518;2022-09-09T09:34:21;19.00;99.90
37342;DHT22;58643;49.052;8.518;2022-09-09T09:36:59;19.30;99.90
37342;DHT22;58643;49.052;8.518;2022-09-09T09:39:30;20.20;99.90
37342;DHT22;58643;49.052;8.518;2022-09-09T09:41:56;18.90;99.90
37342;DHT22;58643;49.052;8.518;2022-09-09T09:44:27;19.80;99.90
37342;DHT22;58643;49.052;8.518;2022-09-09T09:47:10;19.20;99.90
37342;DHT22;58643;49.052;8.518;2022-09-09T09:49:36;19.70;99.90
37342;DHT22;58643;49.052;8.518;2022-09-09T09:52:06;20.90;99.90
37342;DHT22;58643;49.052;8.518;2022-09-09T09:54:42;21.80;99.90
37342;DHT22;58643;49.052;8.518;2022-09-09T09:57:12;22.80;99.90
37342;DHT22;58643;49.052;8.518;2022-09-09T09:59:38;21.90;99.90
37342;DHT22;58643;49.052;8.518;2022-09-09T10:02:20;23.20;99.90
37342;DHT22;58643;49.052;8.518;2022-09-09T10:04:48;23.90;99.90
37342;DHT22;58643;49.052;8.518;2022-09-09T10:07:20;24.10;99.90
37342;DHT22;58643;49.052;8.518;2022-09-09T10:09:51;24.00;99.90
37342;DHT22;58643;49.052;8.518;2022-09-09T10:12:41;23.60;99.90
37342;DHT22;58643;49.052;8.518;2022-09-09T10:18:18;24.20;99.00
37342;DHT22;58643;49.052;8.518;2022-09-09T10:20:58;23.80;99.40
37342;DHT22;58643;49.052;8.518;2022-09-09T10:29:22;24.20;99.00
37342;DHT22;58643;49.052;8.518;2022-09-09T10:35:10;24.20;98.20
37342;DHT22;58643;49.052;8.518;2022-09-09T10:40:45;24.50;97.00
37342;DHT22;58643;49.052;8.518;2022-09-09T10:54:57;22.50;99.80
37342;DHT22;58643;49.052;8.518;2022-09-09T10:57:46;22.30;99.90
37342;DHT22;58643;49.052;8.518;2022-09-09T11:00:21;23.00;99.90
37342;DHT22;58643;49.052;8.518;2022-09-09T11:03:01;23.90;99.40
37342;DHT22;58643;49.052;8.518;2022-09-09T11:05:49;24.40;97.90
37342;DHT22;58643;49.052;8.518;2022-09-09T11:08:21;24.30;96.80
37342;DHT22;58643;49.052;8.518;2022-09-09T11:13:30;24.40;95.40
37342;DHT22;58643;49.052;8.518;2022-09-09T11:16:04;24.40;97.60
37342;DHT22;58643;49.052;8.518;2022-09-09T11:18:31;24.90;95.90
37342;DHT22;58643;49.052;8.518;2022-09-09T11:21:02;25.20;95.40
37342;DHT22;58643;49.052;8.518;2022-09-09T11:23:37;25.20;95.70
37342;DHT22;58643;49.052;8.518;2022-09-09T11:26:05;24.80;95.20
37342;DHT22;58643;49.052;8.518;2022-09-09T11:31:44;25.30;94.90
37342;DHT22;58643;49.052;8.518;2022-09-09T11:34:33;24.90;94.90
37342;DHT22;58643;49.052;8.518;2022-09-09T11:42:26;24.80;94.40
37342;DHT22;58643;49.052;8.518;2022-09-09T11:44:52;24.70;95.80
37342;DHT22;58643;49.052;8.518;2022-09-09T11:47:29;24.80;95.10
37342;DHT22;58643;49.052;8.518;2022-09-09T11:50:26;25.00;94.90
37342;DHT22;58643;49.052;8.518;2022-09-09T11:53:14;25.10;93.50
37342;DHT22;58643;49.052;8.518;2022-09-09T11:55:41;25.70;95.60
37342;DHT22;58643;49.052;8.518;2022-09-09T12:00:37;25.00;93.80
37342;DHT22;58643;49.052;8.518;2022-09-09T12:03:04;25.30;93.40
37342;DHT22;58643;49.052;8.518;2022-09-09T12:05:39;25.40;93.40
37342;DHT22;58643;49.052;8.518;2022-09-09T12:08:06;25.80;92.70
37342;DHT22;58643;49.052;8.518;2022-09-09T12:10:39;25.50;93.50
37342;DHT22;58643;49.052;8.518;2022-09-09T12:13:16;25.70;92.70
37342;DHT22;58643;49.052;8.518;2022-09-09T12:15:50;26.20;91.80
37342;DHT22;58643;49.052;8.518;2022-09-09T12:18:33;26.00;91.40
37342;DHT22;58643;49.052;8.518;2022-09-09T12:23:43;26.30;88.80
37342;DHT22;58643;49.052;8.518;2022-09-09T12:28:58;26.20;90.50
37342;DHT22;58643;49.052;8.518;2022-09-09T12:31:32;26.70;87.70
37342;DHT22;58643;49.052;8.518;2022-09-09T12:34:32;26.80;90.00
37342;DHT22;58643;49.052;8.518;2022-09-09T12:37:04;26.20;89.30
37342;DHT22;58643;49.052;8.518;2022-09-09T12:39:37;25.20;91.10
37342;DHT22;58643;49.052;8.518;2022-09-09T12:42:03;24.20;92.40
37342;DHT22;58643;49.052;8.518;2022-09-09T12:44:30;23.70;93.60
37342;DHT22;58643;49.052;8.518;2022-09-09T12:46:59;23.50;94.50
37342;DHT22;58643;49.052;8.518;2022-09-09T12:49:37;23.60;95.50
37342;DHT22;58643;49.052;8.518;2022-09-09T12:52:32;23.00;94.90
37342;DHT22;58643;49.052;8.518;2022-09-09T12:55:02;22.90;96.40
37342;DHT22;58643;49.052;8.518;2022-09-09T12:57:34;22.70;98.00
37342;DHT22;58643;49.052;8.518;2022-09-09T13:00:14;22.40;98.70
37342;DHT22;58643;49.052;8.518;2022-09-09T13:03:27;22.00;99.80
37342;DHT22;58643;49.052;8.518;2022-09-09T13:05:53;21.90;99.90
37342;DHT22;58643;49.052;8.518;2022-09-09T13:08:19;21.50;99.90
37342;DHT22;58643;49.052;8.518;2022-09-09T13:11:01;19.50;99.90
37342;DHT22;58643;49.052;8.518;2022-09-09T13:13:35;21.50;99.90
37342;DHT22;58643;49.052;8.518;2022-09-09T13:16:02;21.90;99.90
37342;DHT22;58643;49.052;8.518;2022-09-09T13:18:32;21.50;99.90
37342;DHT22;58643;49.052;8.518;2022-09-09T13:20:58;21.50;99.90
37342;DHT22;58643;49.052;8.518;2022-09-09T13:23:33;21.30;99.90
37342;DHT22;58643;49.052;8.518;2022-09-09T13:26:23;21.40;99.90
37342;DHT22;58643;49.052;8.518;2022-09-09T13:28:48;21.30;99.90
37342;DHT22;58643;49.052;8.518;2022-09-09T13:31:32;22.10;99.90
37342;DHT22;58643;49.052;8.518;2022-09-09T13:33:58;22.20;99.90
37342;DHT22;58643;49.052;8.518;2022-09-09T13:36:29;22.20;99.90
37342;DHT22;58643;49.052;8.518;2022-09-09T13:38:57;22.40;99.90
37342;DHT22;58643;49.052;8.518;2022-09-09T13:41:32;23.50;99.90
37342;DHT22;58643;49.052;8.518;2022-09-09T13:43:59;24.50;99.90
37342;DHT22;58643;49.052;8.518;2022-09-09T13:46:41;25.40;99.90
37342;DHT22;58643;49.052;8.518;2022-09-09T13:51:43;27.60;96.80
37342;DHT22;58643;49.052;8.518;2022-09-09T13:54:14;28.60;93.00
37342;DHT22;58643;49.052;8.518;2022-09-09T13:56:40;29.30;91.90
37342;DHT22;58643;49.052;8.518;2022-09-09T13:59:11;28.40;90.30
37342;DHT22;58643;49.052;8.518;2022-09-09T14:01:37;27.70;91.10
37342;DHT22;58643;49.052;8.518;2022-09-09T14:04:04;26.60;93.10
37342;DHT22;58643;49.052;8.518;2022-09-09T14:06:31;26.00;93.30
37342;DHT22;58643;49.052;8.518;2022-09-09T14:08:58;25.70;94.40
37342;DHT22;58643;49.052;8.518;2022-09-09T14:11:24;24.70;97.60
37342;DHT22;58643;49.052;8.518;2022-09-09T14:13:50;23.70;99.40
37342;DHT22;58643;49.052;8.518;2022-09-09T14:16:17;23.10;99.90
37342;DHT22;58643;49.052;8.518;2022-09-09T14:18:46;22.40;99.90
37342;DHT22;58643;49.052;8.518;2022-09-09T14:21:12;22.00;99.90
37342;DHT22;58643;49.052;8.518;2022-09-09T14:23:38;22.10;99.90
37342;DHT22;58643;49.052;8.518;2022-09-09T14:26:07;21.90;99.90
37342;DHT22;58643;49.052;8.518;2022-09-09T14:28:34;21.50;99.90
37342;DHT22;58643;49.052;8.518;2022-09-09T14:31:00;20.80;99.90
37342;DHT22;58643;49.052;8.518;2022-09-09T14:33:27;21.30;99.90
37342;DHT22;58643;49.052;8.518;2022-09-09T14:35:59;19.80;99.90
37342;DHT22;58643;49.052;8.518;2022-09-09T14:38:25;19.10;99.90
37342;DHT22;58643;49.052;8.518;2022-09-09T14:40:53;18.30;99.90
37342;DHT22;58643;49.052;8.518;2022-09-09T14:43:19;17.40;99.90
37342;DHT22;58643;49.052;8.518;2022-09-09T14:45:45;16.80;99.90
37342;DHT22;58643;49.052;8.518;2022-09-09T14:48:13;16.90;99.90
37342;DHT22;58643;49.052;8.518;2022-09-09T14:50:40;16.90;99.90
37342;DHT22;58643;49.052;8.518;2022-09-09T14:53:06;16.50;99.90
37342;DHT22;58643;49.052;8.518;2022-09-09T14:55:32;16.60;99.90
37342;DHT22;58643;49.052;8.518;2022-09-09T14:57:58;16.50;99.90
37342;DHT22;58643;49.052;8.518;2022-09-09T15:00:24;16.30;99.90
37342;DHT22;58643;49.052;8.518;2022-09-09T15:02:53;16.70;99.90
37342;DHT22;58643;49.052;8.518;2022-09-09T15:05:18;17.60;99.90
37342;DHT22;58643;49.052;8.518;2022-09-09T15:07:44;17.40;99.90
37342;DHT22;58643;49.052;8.518;2022-09-09T15:10:10;16.50;99.90
37342;DHT22;58643;49.052;8.518;2022-09-09T15:12:36;16.00;99.90
37342;DHT22;58643;49.052;8.518;2022-09-09T15:15:04;15.90;99.90
37342;DHT22;58643;49.052;8.518;2022-09-09T15:17:30;16.20;99.90
37342;DHT22;58643;49.052;8.518;2022-09-09T15:19:56;16.40;99.90
37342;DHT22;58643;49.052;8.518;2022-09-09T15:22:21;16.70;99.90
37342;DHT22;58643;49.052;8.518;2022-09-09T15:24:47;18.50;99.90
37342;DHT22;58643;49.052;8.518;2022-09-09T15:27:13;17.40;99.90
37342;DHT22;58643;49.052;8.518;2022-09-09T15:29:40;18.00;99.90
37342;DHT22;58643;49.052;8.518;2022-09-09T15:32:06;19.20;99.90
37342;DHT22;58643;49.052;8.518;2022-09-09T15:34:31;18.90;99.90
37342;DHT22;58643;49.052;8.518;2022-09-09T15:36:57;20.30;99.90
37342;DHT22;58643;49.052;8.518;2022-09-09T15:39:25;19.20;99.90
37342;DHT22;58643;49.052;8.518;2022-09-09T15:41:51;19.00;99.90
37342;DHT22;58643;49.052;8.518;2022-09-09T15:44:17;19.20;99.90
37342;DHT22;58643;49.052;8.518;2022-09-09T15:46:50;19.10;99.90
37342;DHT22;58643;49.052;8.518;2022-09-09T15:49:26;19.20;99.90
37342;DHT22;58643;49.052;8.518;2022-09-09T15:51:56;21.50;99.90
37342;DHT22;58643;49.052;8.518;2022-09-09T15:54:24;19.80;99.90
37342;DHT22;58643;49.052;8.518;2022-09-09T15:56:53;19.40;99.90
37342;DHT22;58643;49.052;8.518;2022-09-09T15:59:21;19.40;99.90
37342;DHT22;58643;49.052;8.518;2022-09-09T16:01:47;19.60;99.90
37342;DHT22;58643;49.052;8.518;2022-09-09T16:04:17;19.20;99.90
37342;DHT22;58643;49.052;8.518;2022-09-09T16:07:04;18.80;99.90
37342;DHT22;58643;49.052;8.518;2022-09-09T16:09:31;18.60;99.90
37342;DHT22;58643;49.052;8.518;2022-09-09T16:11:58;18.50;99.90
37342;DHT22;58643;49.052;8.518;2022-09-09T16:14:26;19.10;99.90
37342;DHT22;58643;49.052;8.518;2022-09-09T16:16:52;18.10;99.90
37342;DHT22;58643;49.052;8.518;2022-09-09T16:19:17;17.80;99.90
37342;DHT22;58643;49.052;8.518;2022-09-09T16:21:46;18.30;99.90
37342;DHT22;58643;49.052;8.518;2022-09-09T16:24:14;17.60;99.90
37342;DHT22;58643;49.052;8.518;2022-09-09T16:26:42;18.20;99.90
37342;DHT22;58643;49.052;8.518;2022-09-09T16:29:11;17.50;99.90
37342;DHT22;58643;49.052;8.518;2022-09-09T16:31:37;17.80;99.90
37342;DHT22;58643;49.052;8.518;2022-09-09T16:34:03;17.70;99.90
37342;DHT22;58643;49.052;8.518;2022-09-09T16:36:31;17.10;99.90
37342;DHT22;58643;49.052;8.518;2022-09-09T16:38:58;16.90;99.90
37342;DHT22;58643;49.052;8.518;2022-09-09T16:41:26;16.80;99.90
37342;DHT22;58643;49.052;8.518;2022-09-09T16:43:54;17.10;99.90
37342;DHT22;58643;49.052;8.518;2022-09-09T16:46:21;16.60;99.90
37342;DHT22;58643;49.052;8.518;2022-09-09T16:48:48;18.00;99.90
37342;DHT22;58643;49.052;8.518;2022-09-09T16:51:18;17.90;99.90
37342;DHT22;58643;49.052;8.518;2022-09-09T16:53:45;16.60;99.90
37342;DHT22;58643;49.052;8.518;2022-09-09T16:56:13;16.60;99.90
37342;DHT22;58643;49.052;8.518;2022-09-09T16:58:39;17.30;99.90
37342;DHT22;58643;49.052;8.518;2022-09-09T17:01:05;16.10;99.90
37342;DHT22;58643;49.052;8.518;2022-09-09T17:03:31;16.10;99.90
37342;DHT22;58643;49.052;8.518;2022-09-09T17:05:58;15.90;99.90
37342;DHT22;58643;49.052;8.518;2022-09-09T17:08:28;16.00;99.90
37342;DHT22;58643;49.052;8.518;2022-09-09T17:10:54;17.10;99.90
37342;DHT22;58643;49.052;8.518;2022-09-09T17:13:20;17.80;99.90
37342;DHT22;58643;49.052;8.518;2022-09-09T17:15:45;16.50;99.90
37342;DHT22;58643;49.052;8.518;2022-09-09T17:18:12;15.80;99.90
37342;DHT22;58643;49.052;8.518;2022-09-09T17:20:39;15.70;99.90
37342;DHT22;58643;49.052;8.518;2022-09-09T17:23:06;15.90;99.90
37342;DHT22;58643;49.052;8.518;2022-09-09T17:25:32;16.90;99.90
37342;DHT22;58643;49.052;8.518;2022-09-09T17:27:59;17.60;99.90
37342;DHT22;58643;49.052;8.518;2022-09-09T17:30:26;17.50;99.90
37342;DHT22;58643;49.052;8.518;2022-09-09T17:32:52;15.70;99.90
37342;DHT22;58643;49.052;8.518;2022-09-09T17:35:18;16.70;99.90
37342;DHT22;58643;49.052;8.518;2022-09-09T17:37:44;17.10;99.90